createdAt,value
2022-12-31T00:00:32.357Z,93
2022-12-31T00:01:32.207Z,93
2022-12-31T00:02:32.310Z,93
2022-12-31T00:03:32.267Z,93
2022-12-31T00:04:32.229Z,93
2022-12-31T00:05:32.263Z,93
2022-12-31T00:06:32.267Z,93
2022-12-31T00:08:33.681Z,93
2022-12-31T00:09:37.670Z,93
2022-12-31T00:10:41.878Z,93
2022-12-31T00:11:45.591Z,93
2022-12-31T00:12:49.627Z,93
2022-12-31T00:13:53.621Z,93
2022-12-31T00:14:57.645Z,93
2022-12-31T00:16:05.428Z,93
2022-12-31T00:17:05.692Z,93
2022-12-31T00:18:09.612Z,93
2022-12-31T00:19:14.106Z,93
2022-12-31T00:20:17.600Z,93
2022-12-31T00:21:21.621Z,93
2022-12-31T00:22:25.647Z,93
2022-12-31T00:23:29.595Z,93
2022-12-31T00:24:31.307Z,93
2022-12-31T00:25:31.200Z,93
2022-12-31T00:26:31.202Z,93
2022-12-31T00:27:31.194Z,93
2022-12-31T00:28:31.187Z,93
2022-12-31T00:29:31.164Z,93
2022-12-31T00:30:31.261Z,93
2022-12-31T00:31:31.199Z,93
2022-12-31T00:32:31.214Z,93
2022-12-31T00:33:31.170Z,93
2022-12-31T00:34:31.201Z,93
2022-12-31T00:35:31.193Z,93
2022-12-31T00:36:31.215Z,93
2022-12-31T00:37:31.185Z,93
2022-12-31T00:38:31.200Z,92
2022-12-31T00:39:31.242Z,92
2022-12-31T00:40:31.215Z,92
2022-12-31T00:41:31.177Z,92
2022-12-31T00:42:31.203Z,92
2022-12-31T00:43:31.228Z,92
2022-12-31T00:44:31.222Z,92
2022-12-31T00:45:31.177Z,92
2022-12-31T00:46:31.265Z,92
2022-12-31T00:47:31.255Z,92
2022-12-31T00:48:31.226Z,92
2022-12-31T00:49:31.225Z,92
2022-12-31T00:50:31.232Z,92
2022-12-31T00:51:31.174Z,92
2022-12-31T00:52:31.244Z,92
2022-12-31T00:53:31.202Z,92
2022-12-31T00:54:31.180Z,92
2022-12-31T00:55:31.207Z,92
2022-12-31T00:56:31.215Z,92
2022-12-31T00:57:31.184Z,92
2022-12-31T00:58:31.197Z,92
2022-12-31T00:59:31.195Z,92
2022-12-31T01:00:31.239Z,92
2022-12-31T01:01:31.473Z,92
2022-12-31T01:02:31.437Z,92
2022-12-31T01:03:31.219Z,92
2022-12-31T01:04:31.234Z,92
2022-12-31T01:05:31.169Z,92
2022-12-31T01:06:31.175Z,92
2022-12-31T01:07:31.191Z,92
2022-12-31T01:08:31.193Z,92
2022-12-31T01:09:31.175Z,92
2022-12-31T01:10:31.212Z,92
2022-12-31T01:11:31.178Z,92
2022-12-31T01:12:31.212Z,92
2022-12-31T01:13:31.201Z,92
2022-12-31T01:14:31.210Z,92
2022-12-31T01:15:31.309Z,92
2022-12-31T01:16:31.210Z,92
2022-12-31T01:17:31.165Z,92
2022-12-31T01:18:31.258Z,92
2022-12-31T01:19:31.233Z,92
2022-12-31T01:20:31.200Z,92
2022-12-31T01:21:31.157Z,92
2022-12-31T01:22:31.208Z,92
2022-12-31T01:23:31.196Z,92
2022-12-31T01:24:31.177Z,92
2022-12-31T01:25:31.208Z,92
2022-12-31T01:26:31.179Z,91
2022-12-31T01:27:31.175Z,91
2022-12-31T01:28:31.233Z,91
2022-12-31T01:29:31.215Z,91
2022-12-31T01:30:31.186Z,91
2022-12-31T01:31:31.255Z,91
2022-12-31T01:32:31.155Z,91
2022-12-31T01:33:31.208Z,91
2022-12-31T01:34:31.190Z,91
2022-12-31T01:35:31.161Z,91
2022-12-31T01:36:31.149Z,91
2022-12-31T01:37:31.203Z,91
2022-12-31T01:38:31.197Z,91
2022-12-31T01:39:31.190Z,91
2022-12-31T01:40:31.294Z,91
2022-12-31T01:41:31.416Z,91
2022-12-31T01:42:31.300Z,91
2022-12-31T01:43:31.330Z,91
2022-12-31T01:44:31.288Z,91
2022-12-31T01:45:31.316Z,91
2022-12-31T01:46:31.358Z,91
2022-12-31T01:47:31.268Z,91
2022-12-31T01:48:31.290Z,91
2022-12-31T01:49:31.319Z,91
2022-12-31T01:50:31.276Z,91
2022-12-31T01:51:31.346Z,91
2022-12-31T01:52:31.334Z,91
2022-12-31T01:53:31.201Z,91
2022-12-31T01:54:31.149Z,91
2022-12-31T01:55:31.192Z,91
2022-12-31T01:56:31.173Z,91
2022-12-31T01:57:31.190Z,91
2022-12-31T01:58:31.175Z,91
2022-12-31T01:59:31.217Z,91
2022-12-31T02:00:31.178Z,91
2022-12-31T02:01:31.313Z,91
2022-12-31T02:02:31.291Z,91
2022-12-31T02:03:31.232Z,91
2022-12-31T02:04:31.177Z,91
2022-12-31T02:05:31.235Z,91
2022-12-31T02:06:31.142Z,91
2022-12-31T02:07:31.186Z,91
2022-12-31T02:08:31.146Z,91
2022-12-31T02:09:31.205Z,91
2022-12-31T02:10:31.184Z,91
2022-12-31T02:11:31.142Z,91
2022-12-31T02:12:31.187Z,91
2022-12-31T02:13:31.230Z,91
2022-12-31T02:14:31.158Z,91
2022-12-31T02:15:31.232Z,91
2022-12-31T02:16:31.173Z,91
2022-12-31T02:17:31.204Z,91
2022-12-31T02:18:31.152Z,91
2022-12-31T02:19:31.163Z,91
2022-12-31T02:20:31.161Z,91
2022-12-31T02:21:31.173Z,91
2022-12-31T02:22:31.184Z,91
2022-12-31T02:23:31.192Z,91
2022-12-31T02:24:31.167Z,91
2022-12-31T02:25:31.189Z,91
2022-12-31T02:26:31.187Z,91
2022-12-31T02:27:31.192Z,91
2022-12-31T02:28:31.179Z,91
2022-12-31T02:29:31.225Z,91
2022-12-31T02:30:31.171Z,91
2022-12-31T02:31:31.186Z,92
2022-12-31T02:32:31.193Z,92
2022-12-31T02:33:31.193Z,91
2022-12-31T02:34:31.171Z,92
2022-12-31T02:35:31.181Z,92
2022-12-31T02:36:31.186Z,92
2022-12-31T02:37:31.187Z,92
2022-12-31T02:38:31.274Z,93
2022-12-31T02:39:31.164Z,93
2022-12-31T02:40:31.193Z,93
2022-12-31T02:41:31.187Z,93
2022-12-31T02:42:31.159Z,94
2022-12-31T02:43:31.192Z,94
2022-12-31T02:44:31.181Z,94
2022-12-31T02:45:31.212Z,94
2022-12-31T02:46:31.240Z,95
2022-12-31T02:47:31.181Z,95
2022-12-31T02:48:31.192Z,95
2022-12-31T02:49:31.216Z,95
2022-12-31T02:50:31.164Z,95
2022-12-31T02:51:31.169Z,95
2022-12-31T02:52:31.157Z,95
2022-12-31T02:53:31.235Z,96
2022-12-31T02:54:31.144Z,96
2022-12-31T02:55:31.191Z,96
2022-12-31T02:56:31.155Z,96
2022-12-31T02:57:31.192Z,96
2022-12-31T02:58:31.161Z,96
2022-12-31T02:59:31.188Z,96
2022-12-31T03:00:31.215Z,96
2022-12-31T03:01:31.328Z,96
2022-12-31T03:02:31.304Z,96
2022-12-31T03:03:31.198Z,96
2022-12-31T03:04:31.194Z,96
2022-12-31T03:05:31.174Z,96
2022-12-31T03:06:31.257Z,96
2022-12-31T03:07:31.182Z,96
2022-12-31T03:08:31.184Z,96
2022-12-31T03:09:31.220Z,96
2022-12-31T03:10:31.343Z,96
2022-12-31T03:11:31.368Z,96
2022-12-31T03:12:31.334Z,96
2022-12-31T03:13:31.289Z,96
2022-12-31T03:14:31.172Z,96
2022-12-31T03:15:31.189Z,96
2022-12-31T03:16:31.292Z,96
2022-12-31T03:17:31.296Z,96
2022-12-31T03:18:31.286Z,96
2022-12-31T03:19:31.208Z,97
2022-12-31T03:20:31.160Z,96
2022-12-31T03:21:31.300Z,96
2022-12-31T03:22:31.199Z,96
2022-12-31T03:23:31.231Z,97
2022-12-31T03:24:31.338Z,97
2022-12-31T03:25:31.350Z,97
2022-12-31T03:26:31.151Z,97
2022-12-31T03:27:31.216Z,97
2022-12-31T03:28:31.208Z,97
2022-12-31T03:29:31.333Z,97
2022-12-31T03:30:31.226Z,97
2022-12-31T03:31:31.191Z,97
2022-12-31T03:32:31.148Z,97
2022-12-31T03:33:31.183Z,97
2022-12-31T03:34:31.162Z,97
2022-12-31T03:35:31.248Z,97
2022-12-31T03:36:31.340Z,97
2022-12-31T03:37:31.371Z,97
2022-12-31T03:38:31.258Z,97
2022-12-31T03:39:31.200Z,97
2022-12-31T03:40:31.223Z,97
2022-12-31T03:41:31.202Z,97
2022-12-31T03:42:31.244Z,97
2022-12-31T03:43:31.306Z,97
2022-12-31T03:44:31.301Z,97
2022-12-31T03:45:31.420Z,97
2022-12-31T03:46:31.316Z,97
2022-12-31T03:47:31.184Z,98
2022-12-31T03:48:31.144Z,98
2022-12-31T03:49:31.193Z,98
2022-12-31T03:50:31.152Z,98
2022-12-31T03:51:31.159Z,98
2022-12-31T03:52:31.219Z,98
2022-12-31T03:53:31.201Z,98
2022-12-31T03:54:31.179Z,98
2022-12-31T03:55:31.166Z,98
2022-12-31T03:56:31.165Z,98
2022-12-31T03:57:31.189Z,98
2022-12-31T03:58:31.234Z,98
2022-12-31T03:59:31.195Z,98
2022-12-31T04:00:31.204Z,98
2022-12-31T04:01:31.379Z,98
2022-12-31T04:02:31.458Z,98
2022-12-31T04:03:31.141Z,98
2022-12-31T04:04:31.137Z,98
2022-12-31T04:05:31.293Z,98
2022-12-31T04:06:31.170Z,98
2022-12-31T04:07:31.166Z,98
2022-12-31T04:08:31.146Z,98
2022-12-31T04:09:31.175Z,98
2022-12-31T04:10:31.169Z,98
2022-12-31T04:11:31.154Z,98
2022-12-31T04:12:31.165Z,98
2022-12-31T04:13:31.201Z,98
2022-12-31T04:14:31.175Z,98
2022-12-31T04:15:31.161Z,98
2022-12-31T04:16:31.157Z,98
2022-12-31T04:17:31.218Z,97
2022-12-31T04:18:31.181Z,97
2022-12-31T04:19:31.153Z,97
2022-12-31T04:20:31.152Z,97
2022-12-31T04:21:34.966Z,97
2022-12-31T04:22:31.190Z,97
2022-12-31T04:23:31.171Z,97
2022-12-31T04:24:31.188Z,97
2022-12-31T04:25:31.183Z,97
2022-12-31T04:26:31.168Z,97
2022-12-31T04:27:31.163Z,97
2022-12-31T04:28:31.172Z,97
2022-12-31T04:29:31.190Z,97
2022-12-31T04:30:31.170Z,97
2022-12-31T04:31:31.231Z,97
2022-12-31T04:32:31.232Z,97
2022-12-31T04:33:31.176Z,97
2022-12-31T04:34:31.172Z,97
2022-12-31T04:35:31.215Z,97
2022-12-31T04:36:31.230Z,97
2022-12-31T04:37:31.159Z,97
2022-12-31T04:38:31.172Z,97
2022-12-31T04:39:31.151Z,97
2022-12-31T04:40:31.211Z,98
2022-12-31T04:41:31.143Z,98
2022-12-31T04:42:31.180Z,98
2022-12-31T04:43:31.168Z,98
2022-12-31T04:44:31.182Z,98
2022-12-31T04:45:31.326Z,98
2022-12-31T04:46:31.163Z,98
2022-12-31T04:47:31.168Z,98
2022-12-31T04:48:31.187Z,98
2022-12-31T04:49:31.153Z,98
2022-12-31T04:50:31.293Z,98
2022-12-31T04:51:31.230Z,98
2022-12-31T04:52:34.525Z,98
2022-12-31T04:53:31.166Z,98
2022-12-31T04:54:31.231Z,98
2022-12-31T04:55:31.161Z,98
2022-12-31T04:56:31.205Z,98
2022-12-31T04:57:31.290Z,98
2022-12-31T04:58:31.175Z,98
2022-12-31T04:59:31.141Z,97
2022-12-31T05:00:31.176Z,97
2022-12-31T05:01:31.230Z,97
2022-12-31T05:02:31.428Z,97
2022-12-31T05:03:31.178Z,97
2022-12-31T05:04:31.260Z,97
2022-12-31T05:05:31.147Z,97
2022-12-31T05:06:31.150Z,97
2022-12-31T05:07:31.139Z,97
2022-12-31T05:08:31.185Z,97
2022-12-31T05:09:31.254Z,97
2022-12-31T05:10:31.231Z,97
2022-12-31T05:11:31.170Z,97
2022-12-31T05:12:31.169Z,97
2022-12-31T05:13:33.405Z,97
2022-12-31T05:14:31.185Z,97
2022-12-31T05:15:31.198Z,97
2022-12-31T05:16:31.261Z,97
2022-12-31T05:17:31.175Z,97
2022-12-31T05:18:31.179Z,97
2022-12-31T05:19:31.148Z,97
2022-12-31T05:20:31.169Z,97
2022-12-31T05:21:31.154Z,97
2022-12-31T05:22:31.235Z,97
2022-12-31T05:23:31.184Z,97
2022-12-31T05:24:31.099Z,96
2022-12-31T05:25:31.195Z,96
2022-12-31T05:26:31.124Z,96
2022-12-31T05:27:31.540Z,96
2022-12-31T05:28:31.142Z,96
2022-12-31T05:29:31.198Z,96
2022-12-31T05:30:31.157Z,96
2022-12-31T05:31:31.148Z,96
2022-12-31T05:32:31.134Z,96
2022-12-31T05:33:31.170Z,96
2022-12-31T05:34:31.144Z,96
2022-12-31T05:35:31.185Z,96
2022-12-31T05:36:31.145Z,96
2022-12-31T05:37:31.210Z,96
2022-12-31T05:38:31.143Z,96
2022-12-31T05:39:31.164Z,96
2022-12-31T05:40:31.156Z,96
2022-12-31T05:41:31.188Z,96
2022-12-31T05:42:31.193Z,96
2022-12-31T05:43:31.161Z,96
2022-12-31T05:44:31.148Z,96
2022-12-31T05:45:31.522Z,96
2022-12-31T05:46:31.170Z,96
2022-12-31T05:47:31.217Z,96
2022-12-31T05:48:31.143Z,96
2022-12-31T05:49:31.175Z,96
2022-12-31T05:50:31.141Z,96
2022-12-31T05:51:31.177Z,96
2022-12-31T05:52:31.166Z,96
2022-12-31T05:53:31.224Z,96
2022-12-31T05:54:31.147Z,96
2022-12-31T05:55:31.146Z,96
2022-12-31T05:56:31.121Z,96
2022-12-31T05:57:31.175Z,96
2022-12-31T05:58:31.179Z,96
2022-12-31T05:59:31.221Z,96
2022-12-31T06:00:31.172Z,96
2022-12-31T06:01:31.346Z,96
2022-12-31T06:02:31.161Z,96
2022-12-31T06:03:31.227Z,96
2022-12-31T06:04:31.227Z,96
2022-12-31T06:05:31.196Z,96
2022-12-31T06:06:31.129Z,96
2022-12-31T06:07:31.144Z,96
2022-12-31T06:08:31.185Z,96
2022-12-31T06:09:31.184Z,96
2022-12-31T06:10:31.129Z,96
2022-12-31T06:11:31.143Z,96
2022-12-31T06:12:31.217Z,96
2022-12-31T06:13:31.184Z,95
2022-12-31T06:14:31.155Z,95
2022-12-31T06:15:31.264Z,95
2022-12-31T06:16:31.163Z,95
2022-12-31T06:17:31.162Z,95
2022-12-31T06:18:31.158Z,95
2022-12-31T06:19:31.173Z,95
2022-12-31T06:20:31.126Z,94
2022-12-31T06:21:31.149Z,95
2022-12-31T06:22:31.157Z,94
2022-12-31T06:23:31.172Z,94
2022-12-31T06:24:31.160Z,94
2022-12-31T06:25:31.185Z,94
2022-12-31T06:26:31.140Z,94
2022-12-31T06:27:31.131Z,94
2022-12-31T06:28:31.172Z,94
2022-12-31T06:29:31.155Z,94
2022-12-31T06:30:31.170Z,94
2022-12-31T06:31:31.234Z,94
2022-12-31T06:32:31.193Z,94
2022-12-31T06:33:31.234Z,95
2022-12-31T06:34:31.135Z,95
2022-12-31T06:35:31.143Z,95
2022-12-31T06:36:31.197Z,95
2022-12-31T06:37:31.195Z,95
2022-12-31T06:38:31.126Z,95
2022-12-31T06:39:31.117Z,95
2022-12-31T06:40:31.185Z,94
2022-12-31T06:41:31.159Z,94
2022-12-31T06:42:31.153Z,94
2022-12-31T06:43:31.140Z,94
2022-12-31T06:44:31.165Z,94
2022-12-31T06:45:31.155Z,94
2022-12-31T06:46:31.157Z,94
2022-12-31T06:47:31.149Z,95
2022-12-31T06:48:31.168Z,95
2022-12-31T06:49:31.145Z,94
2022-12-31T06:50:31.156Z,94
2022-12-31T06:51:31.132Z,94
2022-12-31T06:52:31.309Z,95
2022-12-31T06:53:31.168Z,94
2022-12-31T06:54:31.168Z,94
2022-12-31T06:55:31.182Z,94
2022-12-31T06:56:33.871Z,94
2022-12-31T06:57:31.152Z,94
2022-12-31T06:58:31.133Z,94
2022-12-31T06:59:31.124Z,94
2022-12-31T07:00:31.296Z,94
2022-12-31T07:01:31.340Z,94
2022-12-31T07:02:31.352Z,94
2022-12-31T07:03:31.224Z,94
2022-12-31T07:04:31.200Z,94
2022-12-31T07:05:31.261Z,94
2022-12-31T07:06:31.128Z,94
2022-12-31T07:07:31.156Z,94
2022-12-31T07:08:31.157Z,94
2022-12-31T07:09:31.154Z,94
2022-12-31T07:10:31.152Z,94
2022-12-31T07:11:31.136Z,94
2022-12-31T07:12:31.224Z,94
2022-12-31T07:13:31.167Z,94
2022-12-31T07:14:31.115Z,94
2022-12-31T07:15:31.171Z,94
2022-12-31T07:16:31.327Z,94
2022-12-31T07:17:31.132Z,94
2022-12-31T07:18:31.127Z,94
2022-12-31T07:19:31.150Z,94
2022-12-31T07:20:31.165Z,94
2022-12-31T07:21:31.159Z,94
2022-12-31T07:22:31.298Z,94
2022-12-31T07:23:31.472Z,94
2022-12-31T07:24:31.163Z,94
2022-12-31T07:25:31.148Z,94
2022-12-31T07:26:31.160Z,94
2022-12-31T07:27:31.126Z,94
2022-12-31T07:28:31.164Z,94
2022-12-31T07:29:31.142Z,94
2022-12-31T07:30:31.146Z,94
2022-12-31T07:31:31.183Z,94
2022-12-31T07:32:31.137Z,93
2022-12-31T07:33:31.156Z,94
2022-12-31T07:34:31.184Z,93
2022-12-31T07:35:34.985Z,93
2022-12-31T07:36:31.144Z,93
2022-12-31T07:37:31.127Z,93
2022-12-31T07:38:31.267Z,93
2022-12-31T07:39:31.127Z,93
2022-12-31T07:40:31.188Z,93
2022-12-31T07:41:31.120Z,93
2022-12-31T07:42:31.195Z,94
2022-12-31T07:43:31.117Z,93
2022-12-31T07:44:31.154Z,93
2022-12-31T07:45:31.185Z,94
2022-12-31T07:46:31.292Z,94
2022-12-31T07:47:31.159Z,94
2022-12-31T07:48:31.152Z,94
2022-12-31T07:49:31.187Z,94
2022-12-31T07:50:31.163Z,93
2022-12-31T07:51:31.152Z,93
2022-12-31T07:52:31.156Z,93
2022-12-31T07:53:31.111Z,93
2022-12-31T07:54:31.173Z,93
2022-12-31T07:55:31.189Z,93
2022-12-31T07:56:31.120Z,93
2022-12-31T07:57:31.150Z,93
2022-12-31T07:58:31.179Z,94
2022-12-31T07:59:31.161Z,94
2022-12-31T08:00:31.264Z,94
2022-12-31T08:01:31.248Z,94
2022-12-31T08:02:31.312Z,94
2022-12-31T08:03:31.136Z,94
2022-12-31T08:04:31.164Z,94
2022-12-31T08:05:31.130Z,94
2022-12-31T08:06:31.137Z,93
2022-12-31T08:07:31.108Z,94
2022-12-31T08:08:31.231Z,94
2022-12-31T08:09:31.102Z,94
2022-12-31T08:10:31.149Z,94
2022-12-31T08:11:31.123Z,94
2022-12-31T08:12:31.218Z,94
2022-12-31T08:13:31.132Z,94
2022-12-31T08:14:31.164Z,93
2022-12-31T08:15:31.162Z,93
2022-12-31T08:16:31.211Z,93
2022-12-31T08:17:31.140Z,93
2022-12-31T08:18:31.212Z,93
2022-12-31T08:19:31.140Z,93
2022-12-31T08:20:31.153Z,93
2022-12-31T08:21:34.846Z,93
2022-12-31T08:22:31.163Z,93
2022-12-31T08:23:31.147Z,93
2022-12-31T08:24:31.107Z,93
2022-12-31T08:25:31.144Z,93
2022-12-31T08:26:31.188Z,93
2022-12-31T08:27:31.131Z,93
2022-12-31T08:28:31.126Z,93
2022-12-31T08:29:31.176Z,93
2022-12-31T08:30:31.138Z,93
2022-12-31T08:31:31.149Z,93
2022-12-31T08:32:31.115Z,93
2022-12-31T08:33:31.163Z,92
2022-12-31T08:34:31.164Z,92
2022-12-31T08:35:31.263Z,92
2022-12-31T08:36:31.129Z,92
2022-12-31T08:37:31.170Z,92
2022-12-31T08:38:31.397Z,92
2022-12-31T08:39:31.157Z,92
2022-12-31T08:40:31.116Z,92
2022-12-31T08:41:31.200Z,92
2022-12-31T08:42:31.248Z,92
2022-12-31T08:43:31.158Z,92
2022-12-31T08:44:31.146Z,92
2022-12-31T08:45:31.200Z,92
2022-12-31T08:46:31.164Z,92
2022-12-31T08:47:35.457Z,91
2022-12-31T08:48:31.120Z,91
2022-12-31T08:49:31.175Z,91
2022-12-31T08:50:31.131Z,91
2022-12-31T08:51:31.113Z,91
2022-12-31T08:52:31.124Z,91
2022-12-31T08:53:31.190Z,91
2022-12-31T08:54:31.142Z,91
2022-12-31T08:55:31.137Z,91
2022-12-31T08:56:31.168Z,91
2022-12-31T08:57:31.184Z,91
2022-12-31T08:58:31.135Z,91
2022-12-31T08:59:31.177Z,91
2022-12-31T09:00:31.145Z,91
2022-12-31T09:01:31.380Z,91
2022-12-31T09:02:31.281Z,91
2022-12-31T09:03:31.111Z,91
2022-12-31T09:04:31.149Z,91
2022-12-31T09:05:31.188Z,91
2022-12-31T09:06:31.152Z,91
2022-12-31T09:07:31.113Z,91
2022-12-31T09:08:31.116Z,91
2022-12-31T09:09:31.159Z,90
2022-12-31T09:10:31.116Z,91
2022-12-31T09:11:31.151Z,91
2022-12-31T09:12:31.159Z,91
2022-12-31T09:13:31.192Z,91
2022-12-31T09:14:31.150Z,91
2022-12-31T09:15:31.161Z,90
2022-12-31T09:16:31.200Z,90
2022-12-31T09:17:31.166Z,91
2022-12-31T09:18:33.361Z,90
2022-12-31T09:19:31.180Z,90
2022-12-31T09:20:42.256Z,90
2022-12-31T09:21:31.144Z,90
2022-12-31T09:22:31.244Z,90
2022-12-31T09:23:31.122Z,90
2022-12-31T09:24:31.160Z,90
2022-12-31T09:25:31.275Z,90
2022-12-31T09:26:31.135Z,90
2022-12-31T09:27:31.153Z,90
2022-12-31T09:28:31.208Z,90
2022-12-31T09:29:31.111Z,90
2022-12-31T09:30:31.151Z,90
2022-12-31T09:31:31.198Z,90
2022-12-31T09:32:31.157Z,90
2022-12-31T09:33:31.151Z,90
2022-12-31T09:34:31.124Z,90
2022-12-31T09:35:31.151Z,90
2022-12-31T09:36:31.119Z,90
2022-12-31T09:37:31.161Z,90
2022-12-31T09:38:31.107Z,90
2022-12-31T09:39:31.148Z,90
2022-12-31T09:40:31.165Z,90
2022-12-31T09:41:31.123Z,90
2022-12-31T09:42:31.135Z,90
2022-12-31T09:43:31.139Z,90
2022-12-31T09:44:31.165Z,90
2022-12-31T09:45:31.196Z,90
2022-12-31T09:46:31.100Z,90
2022-12-31T09:47:31.139Z,90
2022-12-31T09:48:31.162Z,90
2022-12-31T09:49:31.120Z,90
2022-12-31T09:50:31.144Z,90
2022-12-31T09:51:31.148Z,90
2022-12-31T09:52:31.221Z,90
2022-12-31T09:53:31.125Z,90
2022-12-31T09:54:31.133Z,90
2022-12-31T09:55:31.164Z,90
2022-12-31T09:56:31.136Z,90
2022-12-31T09:57:31.131Z,90
2022-12-31T09:58:31.129Z,90
2022-12-31T09:59:31.191Z,89
2022-12-31T10:00:31.139Z,89
2022-12-31T10:01:31.224Z,89
2022-12-31T10:02:31.259Z,89
2022-12-31T10:03:31.162Z,89
2022-12-31T10:04:31.158Z,89
2022-12-31T10:05:31.130Z,89
2022-12-31T10:06:31.117Z,89
2022-12-31T10:07:31.138Z,89
2022-12-31T10:08:31.129Z,89
2022-12-31T10:09:31.118Z,89
2022-12-31T10:10:31.168Z,89
2022-12-31T10:11:31.193Z,89
2022-12-31T10:12:31.204Z,89
2022-12-31T10:13:31.127Z,89
2022-12-31T10:14:31.118Z,89
2022-12-31T10:15:31.167Z,88
2022-12-31T10:16:31.149Z,88
2022-12-31T10:17:31.118Z,88
2022-12-31T10:18:31.127Z,88
2022-12-31T10:19:31.157Z,89
2022-12-31T10:20:31.144Z,89
2022-12-31T10:21:31.130Z,89
2022-12-31T10:22:31.116Z,89
2022-12-31T10:23:31.164Z,89
2022-12-31T10:24:31.196Z,89
2022-12-31T10:25:38.751Z,89
2022-12-31T10:26:31.117Z,89
2022-12-31T10:27:31.103Z,89
2022-12-31T10:28:31.134Z,89
2022-12-31T10:29:31.148Z,89
2022-12-31T10:30:31.277Z,89
2022-12-31T10:31:31.099Z,89
2022-12-31T10:32:31.623Z,89
2022-12-31T10:33:31.161Z,89
2022-12-31T10:34:31.124Z,89
2022-12-31T10:35:31.117Z,89
2022-12-31T10:36:31.096Z,89
2022-12-31T10:37:31.124Z,89
2022-12-31T10:38:31.146Z,89
2022-12-31T10:39:31.138Z,89
2022-12-31T10:40:31.122Z,89
2022-12-31T10:41:31.127Z,89
2022-12-31T10:42:31.132Z,89
2022-12-31T10:43:31.136Z,89
2022-12-31T10:44:31.122Z,89
2022-12-31T10:45:31.207Z,89
2022-12-31T10:46:31.276Z,88
2022-12-31T10:47:31.111Z,88
2022-12-31T10:48:31.337Z,88
2022-12-31T10:49:31.131Z,88
2022-12-31T10:50:31.123Z,88
2022-12-31T10:51:31.143Z,88
2022-12-31T10:52:31.099Z,87
2022-12-31T10:53:31.145Z,88
2022-12-31T10:54:31.221Z,88
2022-12-31T10:55:31.108Z,88
2022-12-31T10:56:31.117Z,87
2022-12-31T10:57:31.132Z,87
2022-12-31T10:58:31.151Z,87
2022-12-31T10:59:31.110Z,87
2022-12-31T11:00:31.111Z,87
2022-12-31T11:01:31.228Z,87
2022-12-31T11:02:31.207Z,87
2022-12-31T11:03:31.146Z,87
2022-12-31T11:04:31.178Z,87
2022-12-31T11:05:31.145Z,87
2022-12-31T11:06:31.127Z,87
2022-12-31T11:07:31.133Z,87
2022-12-31T11:08:31.123Z,87
2022-12-31T11:09:34.508Z,87
2022-12-31T11:10:31.140Z,87
2022-12-31T11:11:31.106Z,87
2022-12-31T11:12:31.134Z,87
2022-12-31T11:13:31.152Z,87
2022-12-31T11:14:31.183Z,87
2022-12-31T11:15:31.097Z,87
2022-12-31T11:16:31.175Z,87
2022-12-31T11:17:31.176Z,87
2022-12-31T11:18:31.131Z,87
2022-12-31T11:19:31.150Z,87
2022-12-31T11:20:31.277Z,87
2022-12-31T11:21:31.204Z,88
2022-12-31T11:22:31.144Z,88
2022-12-31T11:23:31.127Z,87
2022-12-31T11:24:31.235Z,87
2022-12-31T11:25:31.281Z,88
2022-12-31T11:26:31.171Z,87
2022-12-31T11:27:31.145Z,88
2022-12-31T11:28:31.125Z,87
2022-12-31T11:29:31.165Z,87
2022-12-31T11:30:31.134Z,88
2022-12-31T11:31:31.143Z,88
2022-12-31T11:32:31.240Z,88
2022-12-31T11:33:31.091Z,88
2022-12-31T11:34:31.139Z,88
2022-12-31T11:35:31.122Z,89
2022-12-31T11:36:31.123Z,89
2022-12-31T11:37:31.117Z,89
2022-12-31T11:38:31.119Z,89
2022-12-31T11:39:31.580Z,89
2022-12-31T11:40:31.989Z,89
2022-12-31T11:41:31.126Z,89
2022-12-31T11:42:31.123Z,89
2022-12-31T11:43:31.115Z,89
2022-12-31T11:44:31.114Z,88
2022-12-31T11:45:31.154Z,88
2022-12-31T11:46:31.214Z,88
2022-12-31T11:47:31.161Z,88
2022-12-31T11:48:32.250Z,88
2022-12-31T11:49:31.088Z,88
2022-12-31T11:50:31.166Z,89
2022-12-31T11:51:31.126Z,89
2022-12-31T11:52:31.160Z,88
2022-12-31T11:53:31.095Z,88
2022-12-31T11:54:31.139Z,88
2022-12-31T11:55:31.142Z,88
2022-12-31T11:56:31.106Z,88
2022-12-31T11:57:31.085Z,88
2022-12-31T11:58:31.127Z,88
2022-12-31T11:59:31.105Z,88
2022-12-31T12:00:31.206Z,88
2022-12-31T12:01:31.160Z,88
2022-12-31T12:02:31.247Z,88
2022-12-31T12:03:31.240Z,88
2022-12-31T12:04:31.409Z,88
2022-12-31T12:05:31.093Z,88
2022-12-31T12:06:31.126Z,88
2022-12-31T12:07:31.110Z,88
2022-12-31T12:08:31.112Z,88
2022-12-31T12:09:31.153Z,88
2022-12-31T12:10:36.168Z,88
2022-12-31T12:11:31.131Z,88
2022-12-31T12:12:31.184Z,88
2022-12-31T12:13:31.252Z,88
2022-12-31T12:14:31.163Z,88
2022-12-31T12:15:31.197Z,88
2022-12-31T12:16:31.165Z,88
2022-12-31T12:17:31.106Z,88
2022-12-31T12:18:31.136Z,88
2022-12-31T12:19:31.097Z,88
2022-12-31T12:20:31.125Z,88
2022-12-31T12:21:31.123Z,88
2022-12-31T12:22:31.144Z,88
2022-12-31T12:23:31.105Z,88
2022-12-31T12:24:31.158Z,88
2022-12-31T12:25:31.141Z,88
2022-12-31T12:26:31.054Z,88
2022-12-31T12:27:31.132Z,88
2022-12-31T12:28:31.105Z,88
2022-12-31T12:29:31.119Z,88
2022-12-31T12:30:31.135Z,87
2022-12-31T12:31:31.146Z,87
2022-12-31T12:32:31.137Z,87
2022-12-31T12:33:31.133Z,87
2022-12-31T12:34:31.123Z,87
2022-12-31T12:35:31.129Z,87
2022-12-31T12:36:31.070Z,87
2022-12-31T12:37:31.098Z,87
2022-12-31T12:38:31.100Z,87
2022-12-31T12:39:31.128Z,87
2022-12-31T12:40:34.099Z,87
2022-12-31T12:41:31.170Z,87
2022-12-31T12:42:31.118Z,87
2022-12-31T12:43:31.120Z,87
2022-12-31T12:44:31.131Z,87
2022-12-31T12:45:31.109Z,87
2022-12-31T12:46:31.131Z,87
2022-12-31T12:47:31.135Z,87
2022-12-31T12:48:31.095Z,87
2022-12-31T12:49:31.091Z,87
2022-12-31T12:50:31.102Z,86
2022-12-31T12:51:31.134Z,87
2022-12-31T12:52:31.091Z,87
2022-12-31T12:53:31.096Z,87
2022-12-31T12:54:31.105Z,87
2022-12-31T12:55:31.136Z,87
2022-12-31T12:56:31.109Z,87
2022-12-31T12:57:31.157Z,86
2022-12-31T12:58:31.115Z,86
2022-12-31T12:59:31.128Z,86
2022-12-31T13:00:31.141Z,86
2022-12-31T13:01:31.247Z,86
2022-12-31T13:02:31.295Z,86
2022-12-31T13:03:31.140Z,86
2022-12-31T13:04:35.283Z,86
2022-12-31T13:05:31.115Z,86
2022-12-31T13:06:31.099Z,86
2022-12-31T13:07:31.137Z,86
2022-12-31T13:08:31.115Z,86
2022-12-31T13:09:31.123Z,86
2022-12-31T13:10:31.160Z,86
2022-12-31T13:11:31.141Z,85
2022-12-31T13:12:48.979Z,85
2022-12-31T13:13:31.163Z,85
2022-12-31T13:14:31.113Z,85
2022-12-31T13:15:31.132Z,85
2022-12-31T13:16:31.139Z,85
2022-12-31T13:17:31.110Z,85
2022-12-31T13:18:31.122Z,85
2022-12-31T13:19:31.162Z,85
2022-12-31T13:20:31.079Z,85
2022-12-31T13:21:31.111Z,85
2022-12-31T13:22:31.121Z,85
2022-12-31T13:23:36.206Z,85
2022-12-31T13:24:31.090Z,85
2022-12-31T13:25:31.250Z,85
2022-12-31T13:26:31.128Z,85
2022-12-31T13:27:31.157Z,85
2022-12-31T13:28:31.116Z,85
2022-12-31T13:29:31.089Z,85
2022-12-31T13:30:31.113Z,85
2022-12-31T13:31:31.107Z,85
2022-12-31T13:32:31.169Z,85
2022-12-31T13:33:31.089Z,85
2022-12-31T13:34:31.211Z,85
2022-12-31T13:35:31.147Z,85
2022-12-31T13:36:31.119Z,85
2022-12-31T13:37:31.092Z,85
2022-12-31T13:38:31.114Z,85
2022-12-31T13:39:31.121Z,85
2022-12-31T13:40:31.124Z,85
2022-12-31T13:41:31.088Z,85
2022-12-31T13:42:31.116Z,85
2022-12-31T13:43:31.092Z,85
2022-12-31T13:44:31.127Z,85
2022-12-31T13:45:31.146Z,85
2022-12-31T13:46:31.105Z,85
2022-12-31T13:47:31.109Z,85
2022-12-31T13:48:31.159Z,85
2022-12-31T13:49:31.109Z,85
2022-12-31T13:50:31.099Z,85
2022-12-31T13:51:31.084Z,85
2022-12-31T13:52:31.119Z,85
2022-12-31T13:53:31.065Z,85
2022-12-31T13:54:31.100Z,85
2022-12-31T13:55:31.170Z,85
2022-12-31T13:56:31.125Z,85
2022-12-31T13:57:31.105Z,85
2022-12-31T13:58:31.131Z,85
2022-12-31T13:59:31.109Z,85
2022-12-31T14:00:31.137Z,85
2022-12-31T14:01:34.158Z,85
2022-12-31T14:02:31.264Z,84
2022-12-31T14:03:31.098Z,85
2022-12-31T14:04:31.111Z,85
2022-12-31T14:05:31.104Z,85
2022-12-31T14:06:31.106Z,85
2022-12-31T14:07:37.628Z,85
2022-12-31T14:08:31.119Z,85
2022-12-31T14:09:31.083Z,85
2022-12-31T14:10:31.085Z,85
2022-12-31T14:11:31.083Z,85
2022-12-31T14:12:31.117Z,85
2022-12-31T14:13:34.749Z,85
2022-12-31T14:14:31.095Z,85
2022-12-31T14:15:31.115Z,85
2022-12-31T14:16:31.153Z,85
2022-12-31T14:17:31.084Z,85